Time;durP1;ratioP1;P1;durP2;ratioP2;P2;SDS_P1;SDS_P2;PMS_P1;PMS_P2;Temp;Humidity;BMP_temperature;BMP_pressure;BME280_temperature;BME280_humidity;BME280_pressure;Samples;Min_cycle;Max_cycle;Signal;HPM_P1;HPM_P2
2022/07/11 00:02:12;;;;;;;5.47;2.88;;;15.40;99.90;;;;;;5060808;28;20139;-68
2022/07/11 00:04:38;;;;;;;3.90;2.78;;;15.40;99.90;;;;;;5061754;28;20048;-67
2022/07/11 00:07:04;;;;;;;6.45;2.85;;;15.40;99.90;;;;;;5062224;28;20127;-69
2022/07/11 00:09:31;;;;;;;5.13;3.20;;;15.40;99.90;;;;;;5062464;28;20037;-66
2022/07/11 00:11:57;;;;;;;7.97;3.30;;;15.40;99.90;;;;;;5065270;28;20486;-66
2022/07/11 00:14:23;;;;;;;7.40;3.47;;;15.40;99.90;;;;;;5059322;28;20032;-69
2022/07/11 00:16:50;;;;;;;7.25;3.75;;;15.40;99.90;;;;;;5059621;28;20045;-68
2022/07/11 00:19:16;;;;;;;11.15;3.75;;;15.40;99.90;;;;;;5062129;28;20123;-67
2022/07/11 00:21:42;;;;;;;6.85;3.38;;;15.40;99.90;;;;;;5059963;28;20053;-68
2022/07/11 00:24:08;;;;;;;9.23;3.70;;;15.30;99.90;;;;;;5060845;28;20135;-67
2022/07/11 00:26:35;;;;;;;7.90;3.00;;;15.30;99.90;;;;;;5060856;28;20053;-66
2022/07/11 00:29:07;;;;;;;9.00;3.47;;;15.40;99.90;;;;;;5060575;28;20051;-68
2022/07/11 00:31:33;;;;;;;7.30;2.95;;;15.30;99.90;;;;;;5062399;28;20338;-67
2022/07/11 00:33:59;;;;;;;8.50;3.95;;;15.40;99.90;;;;;;5067142;28;20473;-69
2022/07/11 00:36:25;;;;;;;7.32;3.50;;;15.40;99.90;;;;;;5062012;28;20048;-67
2022/07/11 00:38:51;;;;;;;7.93;3.70;;;15.30;99.90;;;;;;5059548;28;20532;-67
2022/07/11 00:41:18;;;;;;;6.90;3.40;;;15.20;99.90;;;;;;5056265;28;20142;-67
2022/07/11 00:43:52;;;;;;;6.50;3.30;;;15.30;99.90;;;;;;5059793;28;20087;-67
2022/07/11 00:46:18;;;;;;;15.95;3.85;;;15.20;99.90;;;;;;5060489;28;20147;-66
2022/07/11 00:48:43;;;;;;;5.10;3.58;;;15.20;99.90;;;;;;5057319;28;20096;-68
2022/07/11 00:51:12;;;;;;;6.45;3.53;;;15.20;99.90;;;;;;5040901;28;20040;-68
2022/07/11 00:53:40;;;;;;;8.07;3.47;;;15.20;99.90;;;;;;5059681;28;20105;-69
2022/07/11 00:56:06;;;;;;;8.70;3.58;;;15.20;99.90;;;;;;5052345;28;20364;-67
2022/07/11 00:58:32;;;;;;;8.82;3.47;;;15.20;99.90;;;;;;5052343;28;20135;-67
2022/07/11 01:00:58;;;;;;;7.35;3.60;;;15.20;99.90;;;;;;5052498;28;20044;-68
2022/07/11 01:03:24;;;;;;;5.97;3.88;;;15.20;99.90;;;;;;5053137;28;20571;-68
2022/07/11 01:05:50;;;;;;;6.22;3.58;;;15.20;99.90;;;;;;5053812;28;20049;-67
2022/07/11 01:08:16;;;;;;;5.00;3.42;;;15.20;99.90;;;;;;5053604;28;20041;-68
2022/07/11 01:10:44;;;;;;;6.45;3.53;;;15.30;99.90;;;;;;5053191;28;20029;-66
2022/07/11 01:13:13;;;;;;;6.72;3.40;;;15.20;99.90;;;;;;5054930;28;20162;-68
2022/07/11 01:15:38;;;;;;;7.90;3.60;;;15.30;99.90;;;;;;5058177;28;20045;-69
2022/07/11 01:18:05;;;;;;;5.07;2.80;;;15.30;99.90;;;;;;5060081;28;20402;-68
2022/07/11 01:20:30;;;;;;;6.93;2.90;;;15.30;99.90;;;;;;5053414;28;20486;-67
2022/07/11 01:23:05;;;;;;;4.82;2.83;;;15.30;99.90;;;;;;5055201;28;20040;-66
2022/07/11 01:25:34;;;;;;;6.93;3.38;;;15.30;99.90;;;;;;5054754;28;20433;-68
2022/07/11 01:28:06;;;;;;;7.43;3.33;;;15.30;99.90;;;;;;5050867;28;20487;-67
2022/07/11 01:30:33;;;;;;;4.60;2.88;;;15.20;99.90;;;;;;5051391;28;20127;-68
2022/07/11 01:32:59;;;;;;;7.53;3.10;;;15.20;99.90;;;;;;5054373;28;20045;-66
2022/07/11 01:35:26;;;;;;;8.82;3.42;;;15.30;99.90;;;;;;5055438;28;20044;-67
2022/07/11 01:37:52;;;;;;;6.88;3.65;;;15.30;99.90;;;;;;5056357;28;20100;-67
2022/07/11 01:40:20;;;;;;;5.35;3.47;;;15.30;99.90;;;;;;5057825;28;20052;-66
2022/07/11 01:42:46;;;;;;;5.75;3.58;;;15.30;99.90;;;;;;5056257;28;20402;-67
2022/07/11 01:45:13;;;;;;;10.35;3.47;;;15.30;99.90;;;;;;5051150;28;20041;-67
2022/07/11 01:47:39;;;;;;;5.90;3.30;;;15.20;99.90;;;;;;5051776;28;20047;-68
2022/07/11 01:50:06;;;;;;;8.70;3.50;;;15.30;99.90;;;;;;5056552;28;20033;-67
2022/07/11 01:52:31;;;;;;;5.47;3.50;;;15.30;99.90;;;;;;5044139;28;20094;-66
2022/07/11 01:54:57;;;;;;;8.57;3.50;;;15.30;99.90;;;;;;5054163;28;20037;-67
2022/07/11 01:57:23;;;;;;;6.00;3.22;;;15.30;99.90;;;;;;5053461;28;20131;-69
2022/07/11 01:59:49;;;;;;;8.13;3.53;;;15.30;99.90;;;;;;5054654;28;20065;-66
2022/07/11 02:02:15;;;;;;;10.70;3.65;;;15.30;99.90;;;;;;5056893;28;20486;-67
2022/07/11 02:04:41;;;;;;;8.38;3.13;;;15.30;99.90;;;;;;5055172;28;20048;-68
2022/07/11 02:07:07;;;;;;;5.20;3.03;;;15.30;99.90;;;;;;5052927;28;20041;-67
2022/07/11 02:09:33;;;;;;;8.32;3.67;;;15.30;99.90;;;;;;5053402;28;20079;-67
2022/07/11 02:11:59;;;;;;;5.70;3.33;;;15.30;99.90;;;;;;5052365;28;20148;-69
2022/07/11 02:14:28;;;;;;;5.00;2.47;;;15.30;99.90;;;;;;5055428;28;20067;-67
2022/07/11 02:16:53;;;;;;;4.65;2.80;;;15.30;99.90;;;;;;5052931;28;20047;-68
2022/07/11 02:19:19;;;;;;;4.57;2.70;;;15.30;99.90;;;;;;5054264;28;20036;-68
2022/07/11 02:21:44;;;;;;;6.07;2.88;;;15.30;99.90;;;;;;5053968;28;20467;-68
2022/07/11 02:24:10;;;;;;;3.85;2.60;;;15.30;99.90;;;;;;5056365;28;20055;-68
2022/07/11 02:26:36;;;;;;;4.53;2.90;;;15.30;99.90;;;;;;5061538;28;20052;-67
2022/07/11 02:29:02;;;;;;;3.30;2.33;;;15.40;99.90;;;;;;5063082;28;20087;-66
2022/07/11 02:31:27;;;;;;;5.38;2.72;;;15.30;99.90;;;;;;5062210;28;20119;-68
2022/07/11 02:33:54;;;;;;;7.25;2.72;;;15.30;99.90;;;;;;5061075;28;20463;-67
2022/07/11 02:36:20;;;;;;;4.30;2.83;;;15.30;99.90;;;;;;5061325;28;20036;-67
2022/07/11 02:38:45;;;;;;;5.22;2.90;;;15.40;99.90;;;;;;5054563;28;20044;-66
2022/07/11 02:41:12;;;;;;;5.05;2.65;;;15.30;99.90;;;;;;5062054;28;20040;-68
2022/07/11 02:43:38;;;;;;;5.03;2.58;;;15.30;99.90;;;;;;5061591;28;20049;-66
2022/07/11 02:46:04;;;;;;;6.80;3.10;;;15.30;99.90;;;;;;5063459;28;20055;-67
2022/07/11 02:48:31;;;;;;;8.32;2.90;;;15.30;99.90;;;;;;5059387;28;20124;-68
2022/07/11 02:50:57;;;;;;;7.07;2.90;;;15.30;99.90;;;;;;5064440;28;20406;-67
2022/07/11 02:53:23;;;;;;;10.00;3.10;;;15.20;99.90;;;;;;5062685;28;20032;-68
2022/07/11 02:55:48;;;;;;;7.07;3.25;;;15.20;99.90;;;;;;5063443;28;20475;-67
2022/07/11 02:58:14;;;;;;;7.50;2.90;;;15.20;99.90;;;;;;5054908;28;20041;-67
2022/07/11 03:00:40;;;;;;;4.95;2.92;;;15.20;99.90;;;;;;5056198;28;20048;-68
2022/07/11 03:03:06;;;;;;;9.80;3.10;;;15.30;99.90;;;;;;5058958;28;20436;-68
2022/07/11 03:05:32;;;;;;;8.55;3.28;;;15.20;99.90;;;;;;5052832;28;21237;-70
2022/07/11 03:07:58;;;;;;;7.75;2.97;;;15.20;99.90;;;;;;5059686;28;20194;-67
2022/07/11 03:10:24;;;;;;;4.38;2.58;;;15.20;99.90;;;;;;5063447;28;20130;-65
2022/07/11 03:12:50;;;;;;;6.50;2.92;;;15.30;99.90;;;;;;5061099;28;20045;-67
2022/07/11 03:15:16;;;;;;;7.22;2.42;;;15.30;99.90;;;;;;5062785;28;20033;-69
2022/07/11 03:17:42;;;;;;;5.32;2.42;;;15.30;99.90;;;;;;5057775;28;20390;-69
2022/07/11 03:20:08;;;;;;;6.45;2.60;;;15.30;99.90;;;;;;5060963;28;20140;-67
2022/07/11 03:22:35;;;;;;;3.97;2.20;;;15.30;99.90;;;;;;5061185;28;20504;-68
2022/07/11 03:25:03;;;;;;;2.83;2.20;;;15.30;99.90;;;;;;5057614;28;20048;-68
2022/07/11 03:27:28;;;;;;;3.80;2.05;;;15.30;99.90;;;;;;5059194;28;20120;-67
2022/07/11 03:29:54;;;;;;;4.30;1.95;;;15.30;99.90;;;;;;5062204;28;20454;-67
2022/07/11 03:32:21;;;;;;;4.05;2.10;;;15.30;99.90;;;;;;5062612;28;20135;-68
2022/07/11 03:37:31;;;;;;;5.03;1.83;;;15.30;99.90;;;;;;5061015;28;20572;-68
2022/07/11 03:39:57;;;;;;;5.18;1.70;;;15.20;99.90;;;;;;5055987;28;20071;-67
2022/07/11 03:42:23;;;;;;;5.30;1.70;;;15.20;99.90;;;;;;5057801;28;20548;-67
2022/07/11 03:44:49;;;;;;;3.83;1.73;;;15.20;99.90;;;;;;5061844;28;20118;-69
2022/07/11 03:47:14;;;;;;;6.43;1.80;;;15.20;99.90;;;;;;5060194;28;20040;-68
2022/07/11 03:49:40;;;;;;;3.67;1.83;;;15.20;99.90;;;;;;5055585;28;20049;-68
2022/07/11 03:52:08;;;;;;;6.57;2.00;;;15.30;99.90;;;;;;5063183;28;20128;-67
2022/07/11 03:54:34;;;;;;;3.97;2.40;;;15.20;99.90;;;;;;5058387;28;20452;-67
2022/07/11 03:57:00;;;;;;;3.35;1.70;;;15.20;99.90;;;;;;5059802;28;20037;-67
2022/07/11 03:59:25;;;;;;;5.25;1.90;;;15.20;99.90;;;;;;5060910;28;20591;-68
2022/07/11 04:01:51;;;;;;;5.13;1.75;;;15.20;99.90;;;;;;5052789;28;20653;-67
2022/07/11 04:04:17;;;;;;;7.88;2.20;;;15.20;99.90;;;;;;5060459;28;20488;-68
2022/07/11 04:06:43;;;;;;;3.17;1.70;;;15.30;99.90;;;;;;5052832;28;20403;-69
2022/07/11 04:09:10;;;;;;;2.95;1.67;;;15.30;99.90;;;;;;5057301;28;20040;-68
2022/07/11 04:11:36;;;;;;;6.78;1.92;;;15.30;99.90;;;;;;5056666;28;20084;-67
2022/07/11 04:14:02;;;;;;;6.47;2.17;;;15.30;99.90;;;;;;5058888;28;20041;-68
2022/07/11 04:16:27;;;;;;;3.72;1.80;;;15.30;99.90;;;;;;5058958;28;20033;-68
2022/07/11 04:18:53;;;;;;;5.43;2.10;;;15.30;99.90;;;;;;5056731;28;20045;-67
2022/07/11 04:21:19;;;;;;;4.63;1.85;;;15.30;99.90;;;;;;5057204;28;20045;-67
2022/07/11 04:23:44;;;;;;;5.20;1.75;;;15.30;99.90;;;;;;5057274;28;20382;-68
2022/07/11 04:26:10;;;;;;;5.50;1.90;;;15.40;99.90;;;;;;5056656;28;20666;-68
2022/07/11 04:28:36;;;;;;;4.95;2.20;;;15.30;99.90;;;;;;5060086;28;22101;-67
2022/07/11 04:31:02;;;;;;;8.60;2.40;;;15.30;99.90;;;;;;5057089;28;20492;-68
2022/07/11 04:33:28;;;;;;;3.65;1.83;;;15.40;99.90;;;;;;5058351;28;20053;-69
2022/07/11 04:35:54;;;;;;;4.60;2.05;;;15.30;99.90;;;;;;5058788;28;20682;-67
2022/07/11 04:38:21;;;;;;;2.45;1.50;;;15.30;99.90;;;;;;5057618;28;20206;-68
2022/07/11 04:40:49;;;;;;;6.40;1.67;;;15.40;99.90;;;;;;5052599;28;20059;-67
2022/07/11 04:43:14;;;;;;;2.90;1.40;;;15.30;99.90;;;;;;5059425;28;20043;-68
2022/07/11 04:45:40;;;;;;;3.83;1.60;;;15.30;99.90;;;;;;5059222;28;20040;-69
2022/07/11 04:48:06;;;;;;;2.28;1.40;;;15.30;99.90;;;;;;5056863;28;20384;-67
2022/07/11 04:50:31;;;;;;;3.08;1.33;;;15.30;99.90;;;;;;5058005;28;20072;-68
2022/07/11 04:52:57;;;;;;;3.72;1.63;;;15.30;99.90;;;;;;5058843;28;20052;-68
2022/07/11 04:55:23;;;;;;;2.55;1.33;;;15.40;99.90;;;;;;5059546;28;20044;-67
2022/07/11 04:57:49;;;;;;;2.40;1.20;;;15.40;99.90;;;;;;5058752;28;20040;-66
2022/07/11 05:00:15;;;;;;;3.20;1.33;;;15.30;99.90;;;;;;5056265;28;20158;-67
2022/07/11 05:02:41;;;;;;;2.38;1.17;;;15.40;99.90;;;;;;5055348;28;20056;-67
2022/07/11 05:05:07;;;;;;;4.95;1.25;;;15.40;99.90;;;;;;5057992;28;20090;-68
2022/07/11 05:07:32;;;;;;;3.83;1.50;;;15.50;99.90;;;;;;5057670;28;20125;-68
2022/07/11 05:09:58;;;;;;;2.92;1.10;;;15.40;99.90;;;;;;5057328;28;20135;-67
2022/07/11 05:12:24;;;;;;;6.22;1.40;;;15.50;99.90;;;;;;5059158;28;20083;-68
2022/07/11 05:14:50;;;;;;;1.98;1.20;;;15.50;99.90;;;;;;5060514;28;20052;-67
2022/07/11 05:17:16;;;;;;;2.47;1.27;;;15.50;99.90;;;;;;5027471;28;20045;-67
2022/07/11 05:19:41;;;;;;;3.60;1.60;;;15.50;99.90;;;;;;5057781;28;20067;-68
2022/07/11 05:22:07;;;;;;;3.53;1.17;;;15.60;99.90;;;;;;5063149;28;20379;-68
2022/07/11 05:24:33;;;;;;;2.72;0.98;;;15.60;99.90;;;;;;5062374;28;20174;-67
2022/07/11 05:26:58;;;;;;;3.92;1.30;;;15.70;99.90;;;;;;5050877;28;20040;-68
2022/07/11 05:29:24;;;;;;;4.03;1.10;;;15.70;99.90;;;;;;5065374;28;20087;-68
2022/07/11 05:31:50;;;;;;;2.33;1.10;;;15.80;99.90;;;;;;5057499;28;20040;-69
2022/07/11 05:34:17;;;;;;;5.15;1.13;;;15.80;99.90;;;;;;5058468;28;20039;-68
2022/07/11 05:36:43;;;;;;;2.53;1.17;;;15.90;99.90;;;;;;5060196;28;20547;-68
2022/07/11 05:39:09;;;;;;;2.47;1.00;;;15.80;99.90;;;;;;5061038;28;20059;-67
2022/07/11 05:41:40;;;;;;;1.52;0.80;;;15.80;99.90;;;;;;5055009;28;20104;-67
2022/07/11 05:44:05;;;;;;;2.17;0.65;;;15.90;99.90;;;;;;5069357;28;20048;-68
2022/07/11 05:46:31;;;;;;;0.75;0.60;;;15.90;99.90;;;;;;5065619;28;20040;-68
2022/07/11 05:48:57;;;;;;;2.10;0.70;;;15.90;99.90;;;;;;5061975;28;20051;-67
2022/07/11 05:51:22;;;;;;;1.67;0.63;;;15.90;99.90;;;;;;5069972;28;20041;-67
2022/07/11 05:53:49;;;;;;;3.47;0.90;;;15.90;99.90;;;;;;5068217;28;20047;-67
2022/07/11 05:56:14;;;;;;;3.72;0.88;;;15.80;99.90;;;;;;5064828;28;20032;-67
2022/07/11 05:58:40;;;;;;;3.17;0.85;;;15.80;99.90;;;;;;5040787;28;20040;-66
2022/07/11 06:01:06;;;;;;;3.35;1.00;;;15.90;99.90;;;;;;5060424;28;20064;-68
2022/07/11 06:03:31;;;;;;;3.15;1.10;;;15.90;99.90;;;;;;5054362;28;20127;-66
2022/07/11 06:05:57;;;;;;;1.98;0.98;;;16.00;99.90;;;;;;5065883;28;20049;-67
2022/07/11 06:08:41;;;;;;;2.40;0.90;;;16.10;99.90;;;;;;5064687;28;20060;-68
2022/07/11 06:11:11;;;;;;;5.30;1.10;;;16.10;99.90;;;;;;5059746;28;20127;-66
2022/07/11 06:13:38;;;;;;;2.13;0.93;;;16.10;99.90;;;;;;5060937;28;20045;-67
2022/07/11 06:16:08;;;;;;;2.38;0.90;;;16.20;99.90;;;;;;5057617;28;20462;-67
2022/07/11 06:18:37;;;;;;;2.97;0.90;;;16.30;99.90;;;;;;5063373;28;20498;-67
2022/07/11 06:21:05;;;;;;;1.77;1.10;;;16.30;99.90;;;;;;5059153;28;20106;-68
2022/07/11 06:23:34;;;;;;;2.57;1.00;;;16.30;99.90;;;;;;5065061;28;20045;-67
2022/07/11 06:26:01;;;;;;;3.10;1.00;;;16.50;99.90;;;;;;5069608;28;20048;-66
2022/07/11 06:28:27;;;;;;;5.38;1.08;;;16.40;99.90;;;;;;5071037;28;20134;-67
2022/07/11 06:30:53;;;;;;;2.60;1.08;;;16.50;99.90;;;;;;5066463;28;20375;-67
2022/07/11 06:33:19;;;;;;;2.00;0.90;;;16.60;99.90;;;;;;5064574;28;20119;-66
2022/07/11 06:35:46;;;;;;;2.78;1.10;;;16.70;99.90;;;;;;5063957;28;20520;-66
2022/07/11 06:38:12;;;;;;;4.00;0.95;;;16.70;99.90;;;;;;5070824;28;20410;-68
2022/07/11 06:40:39;;;;;;;3.47;1.20;;;16.70;99.90;;;;;;5059639;28;20406;-67
2022/07/11 06:43:06;;;;;;;2.92;1.00;;;16.80;99.90;;;;;;5056122;28;20055;-67
2022/07/11 06:45:33;;;;;;;2.25;0.90;;;16.70;99.90;;;;;;5060943;28;20055;-67
2022/07/11 06:47:58;;;;;;;1.92;0.95;;;16.70;99.90;;;;;;5068674;28;20080;-66
2022/07/11 06:50:24;;;;;;;1.88;0.93;;;16.60;99.90;;;;;;5068180;28;20083;-66
2022/07/11 06:52:50;;;;;;;1.65;0.70;;;16.70;99.90;;;;;;5060093;28;20040;-67
2022/07/11 06:55:16;;;;;;;2.20;0.85;;;16.70;99.90;;;;;;5062258;28;20047;-67
2022/07/11 06:57:41;;;;;;;2.35;1.15;;;16.70;99.90;;;;;;5049170;28;20048;-65
2022/07/11 07:00:08;;;;;;;1.63;0.95;;;16.70;99.90;;;;;;5054533;28;20091;-67
2022/07/11 07:02:34;;;;;;;2.03;1.05;;;16.80;99.90;;;;;;5064954;28;20049;-65
2022/07/11 07:05:01;;;;;;;1.60;1.10;;;16.80;99.90;;;;;;5059026;28;20040;-66
2022/07/11 07:07:27;;;;;;;1.38;1.05;;;16.90;99.90;;;;;;5055356;28;20049;-69
2022/07/11 07:09:54;;;;;;;2.40;0.93;;;17.00;99.90;;;;;;5070400;28;20043;-67
2022/07/11 07:12:28;;;;;;;2.63;0.95;;;17.10;99.90;;;;;;5066994;28;20537;-68
2022/07/11 07:14:54;;;;;;;2.78;1.02;;;17.20;99.90;;;;;;5065012;28;20474;-67
2022/07/11 07:17:23;;;;;;;2.50;0.88;;;17.20;99.90;;;;;;5061847;28;20069;-66
2022/07/11 07:19:49;;;;;;;3.65;1.13;;;17.20;99.90;;;;;;5062370;28;20944;-67
2022/07/11 07:22:16;;;;;;;3.13;1.10;;;17.30;99.90;;;;;;5069843;28;20215;-68
2022/07/11 07:24:46;;;;;;;3.53;1.30;;;17.40;99.90;;;;;;5057976;28;20487;-67
2022/07/11 07:27:12;;;;;;;2.08;1.10;;;17.40;99.90;;;;;;5067877;28;20495;-67
2022/07/11 07:29:38;;;;;;;2.10;1.02;;;17.40;99.90;;;;;;5060241;28;20043;-70
2022/07/11 07:32:05;;;;;;;3.20;1.00;;;17.30;99.90;;;;;;5068174;28;20045;-66
2022/07/11 07:34:34;;;;;;;3.00;1.25;;;17.30;99.90;;;;;;5065600;28;20443;-68
2022/07/11 07:37:00;;;;;;;2.38;0.90;;;17.40;99.90;;;;;;5056056;28;20224;-68
2022/07/11 07:39:29;;;;;;;1.70;0.88;;;17.60;99.90;;;;;;5058478;28;20124;-67
2022/07/11 07:41:54;;;;;;;0.85;0.70;;;17.70;99.90;;;;;;5065815;28;20489;-66
2022/07/11 07:44:20;;;;;;;1.38;0.85;;;17.80;99.90;;;;;;5062235;28;20388;-66
2022/07/11 07:46:46;;;;;;;0.80;0.70;;;17.80;99.90;;;;;;5070194;28;20164;-68
2022/07/11 07:49:13;;;;;;;2.40;0.75;;;17.90;99.90;;;;;;5070668;28;20044;-67
2022/07/11 07:51:38;;;;;;;1.23;0.70;;;18.00;99.90;;;;;;5065102;28;20040;-67
2022/07/11 07:54:04;;;;;;;1.92;0.68;;;18.00;99.90;;;;;;5071427;28;20046;-66
2022/07/11 07:56:30;;;;;;;3.33;0.80;;;17.90;99.90;;;;;;5054894;28;20498;-66
2022/07/11 07:58:56;;;;;;;1.10;0.60;;;17.80;99.90;;;;;;5056840;28;20037;-67
2022/07/11 08:01:34;;;;;;;2.15;0.73;;;17.60;99.90;;;;;;5070475;28;20136;-68
2022/07/11 08:04:01;;;;;;;2.33;0.77;;;17.60;99.90;;;;;;5071756;28;20040;-67
2022/07/11 08:06:27;;;;;;;2.42;0.80;;;17.60;99.90;;;;;;5059471;28;20048;-67
2022/07/11 08:08:52;;;;;;;1.33;0.57;;;17.50;99.90;;;;;;5053007;28;20490;-67
2022/07/11 08:11:21;;;;;;;1.05;0.60;;;17.50;99.90;;;;;;5051795;28;20063;-66
2022/07/11 08:13:48;;;;;;;1.52;0.80;;;17.50;99.90;;;;;;5052864;28;20053;-67
2022/07/11 08:16:14;;;;;;;2.25;0.60;;;17.50;99.90;;;;;;5060378;28;20063;-67
2022/07/11 08:18:43;;;;;;;0.77;0.50;;;17.50;99.90;;;;;;5070675;28;20094;-67
2022/07/11 08:21:09;;;;;;;1.00;0.60;;;17.60;99.90;;;;;;5068043;28;20440;-67
2022/07/11 08:23:38;;;;;;;1.23;0.75;;;17.70;99.90;;;;;;5070520;28;20048;-68
2022/07/11 08:26:04;;;;;;;0.50;0.50;;;17.80;99.90;;;;;;5058810;28;20033;-67
2022/07/11 08:28:30;;;;;;;1.05;0.70;;;17.70;99.90;;;;;;5058759;28;20048;-67
2022/07/11 08:30:57;;;;;;;2.03;0.60;;;17.70;99.90;;;;;;5071323;28;20089;-66
2022/07/11 08:33:22;;;;;;;1.35;0.70;;;17.60;99.90;;;;;;5071554;28;20041;-68
2022/07/11 08:35:48;;;;;;;1.08;0.68;;;17.60;99.90;;;;;;5065654;28;20051;-66
2022/07/11 08:38:14;;;;;;;2.10;0.57;;;17.60;99.90;;;;;;5066153;28;20071;-67
2022/07/11 08:40:43;;;;;;;2.60;0.80;;;17.60;99.90;;;;;;5052213;28;20087;-66
2022/07/11 08:43:16;;;;;;;0.30;0.30;;;17.70;99.90;;;;;;5069123;28;20410;-67
2022/07/11 08:45:42;;;;;;;2.08;0.45;;;17.70;99.90;;;;;;5059426;28;20056;-68
2022/07/11 08:48:09;;;;;;;0.45;0.40;;;17.80;99.90;;;;;;5055784;28;20045;-67
2022/07/11 08:50:35;;;;;;;0.50;0.43;;;17.90;99.90;;;;;;5057976;28;20069;-66
2022/07/11 08:53:05;;;;;;;1.90;0.68;;;17.90;99.90;;;;;;5071622;28;20131;-67
2022/07/11 08:55:32;;;;;;;2.72;0.60;;;17.90;99.90;;;;;;5056290;28;20076;-66
2022/07/11 08:58:02;;;;;;;0.68;0.50;;;17.80;99.90;;;;;;5067465;28;20135;-67
2022/07/11 09:00:27;;;;;;;2.50;0.70;;;17.80;99.90;;;;;;5057715;28;20040;-67
2022/07/11 09:02:54;;;;;;;0.90;0.55;;;17.70;99.90;;;;;;5071006;28;20040;-66
2022/07/11 09:05:19;;;;;;;1.10;0.77;;;17.80;99.90;;;;;;5071284;28;20056;-68
2022/07/11 09:07:49;;;;;;;0.68;0.40;;;17.80;99.90;;;;;;5069996;28;20190;-67
2022/07/11 09:10:16;;;;;;;0.73;0.40;;;17.80;99.90;;;;;;5057605;28;20114;-67
2022/07/11 09:13:04;;;;;;;1.27;0.60;;;17.80;99.90;;;;;;5053296;28;20052;-67
2022/07/11 09:15:42;;;;;;;1.67;0.65;;;17.80;99.90;;;;;;5060736;28;20517;-68
2022/07/11 09:18:34;;;;;;;2.22;0.75;;;17.90;99.90;;;;;;5083715;28;20041;-66
2022/07/11 09:26:35;;;;;;;1.15;0.50;;;18.10;99.90;;;;;;5062889;28;20402;-68
2022/07/11 09:29:06;;;;;;;0.50;0.30;;;18.10;99.90;;;;;;5066922;28;20037;-69
2022/07/11 09:31:33;;;;;;;1.90;0.50;;;18.20;99.90;;;;;;5067501;28;20029;-67
2022/07/11 09:34:03;;;;;;;0.70;0.50;;;18.10;99.90;;;;;;5067736;28;20047;-68
2022/07/11 09:36:37;;;;;;;1.08;0.60;;;18.00;99.90;;;;;;5057616;28;20135;-68
2022/07/11 09:39:04;;;;;;;1.35;0.45;;;18.00;99.90;;;;;;5069465;28;20124;-68
2022/07/11 09:41:34;;;;;;;2.53;0.45;;;18.00;99.90;;;;;;5069499;28;20056;-67
2022/07/11 09:44:18;;;;;;;1.77;0.57;;;18.00;99.90;;;;;;5070668;28;20052;-67
2022/07/11 09:46:46;;;;;;;1.42;0.50;;;18.00;99.90;;;;;;5057175;28;20120;-69
2022/07/11 09:49:13;;;;;;;1.50;0.57;;;18.10;99.90;;;;;;5070344;28;20044;-67
2022/07/11 09:51:39;;;;;;;0.73;0.57;;;18.10;99.90;;;;;;5056537;28;20060;-68
2022/07/11 09:54:06;;;;;;;0.47;0.30;;;18.10;99.90;;;;;;5054241;28;20041;-66
2022/07/11 09:56:38;;;;;;;0.70;0.40;;;18.00;99.90;;;;;;5043537;28;20098;-68
2022/07/11 09:59:08;;;;;;;1.45;0.63;;;18.10;99.90;;;;;;5052195;28;20048;-68
2022/07/11 10:01:34;;;;;;;0.85;0.40;;;18.00;99.90;;;;;;5061854;28;20099;-67
2022/07/11 10:04:00;;;;;;;0.40;0.40;;;18.10;99.90;;;;;;5046918;28;20487;-67
2022/07/11 10:06:26;;;;;;;3.83;0.68;;;18.10;99.90;;;;;;5059920;28;20076;-67
2022/07/11 10:08:53;;;;;;;1.52;1.00;;;18.00;99.90;;;;;;5058985;28;20041;-67
2022/07/11 10:11:21;;;;;;;2.85;0.90;;;18.00;99.90;;;;;;5058951;28;20375;-67
2022/07/11 10:13:48;;;;;;;1.95;1.00;;;18.00;99.90;;;;;;5071635;28;20041;-67
2022/07/11 10:16:40;;;;;;;4.60;0.88;;;18.00;99.90;;;;;;5067215;28;20087;-68
2022/07/11 10:19:15;;;;;;;3.47;0.80;;;17.90;99.90;;;;;;5061451;28;20036;-67
2022/07/11 10:22:11;;;;;;;3.30;0.90;;;17.80;99.90;;;;;;5056370;28;20051;-68
2022/07/11 10:24:55;;;;;;;1.67;0.77;;;17.80;99.90;;;;;;5050281;28;20384;-67
2022/07/11 10:27:53;;;;;;;3.85;1.20;;;17.80;99.90;;;;;;5052843;28;20041;-67
2022/07/11 10:30:40;;;;;;;1.73;0.80;;;17.90;99.90;;;;;;5034933;28;20045;-68
2022/07/11 10:33:06;;;;;;;7.32;1.00;;;18.00;99.90;;;;;;5051173;28;20045;-68
2022/07/11 10:35:32;;;;;;;1.95;0.80;;;18.00;99.90;;;;;;5059121;28;20059;-70
2022/07/11 10:37:58;;;;;;;1.33;0.77;;;18.00;99.90;;;;;;5073128;28;20044;-66
2022/07/11 10:40:47;;;;;;;0.85;0.73;;;18.10;99.90;;;;;;5075099;28;20044;-68
2022/07/11 10:43:15;;;;;;;1.45;1.02;;;18.20;99.90;;;;;;5074078;28;20044;-67
2022/07/11 10:45:57;;;;;;;2.80;0.82;;;18.20;99.90;;;;;;5061555;28;20045;-68
2022/07/11 10:48:24;;;;;;;4.10;1.00;;;18.20;99.90;;;;;;5054549;28;20047;-69
2022/07/11 10:51:28;;;;;;;0.80;0.70;;;18.20;99.90;;;;;;5068019;28;20499;-67
2022/07/11 10:53:57;;;;;;;0.90;0.73;;;18.10;99.90;;;;;;5065647;28;20056;-66
2022/07/11 10:56:43;;;;;;;1.85;0.75;;;18.10;99.90;;;;;;5065251;28;20049;-67
2022/07/11 10:59:16;;;;;;;2.40;0.82;;;18.20;99.90;;;;;;5067204;28;20041;-67
2022/07/11 11:02:04;;;;;;;1.95;0.90;;;18.30;99.90;;;;;;5065789;28;20060;-66
2022/07/11 11:04:47;;;;;;;0.50;0.50;;;18.40;99.90;;;;;;5045947;28;20047;-68
2022/07/11 11:07:29;;;;;;;0.70;0.52;;;18.40;99.90;;;;;;5066122;28;20071;-67
2022/07/11 11:09:58;;;;;;;0.93;0.80;;;18.40;99.90;;;;;;5069871;28;20374;-68
2022/07/11 11:13:05;;;;;;;1.48;0.95;;;18.30;99.90;;;;;;5066735;28;20108;-68
2022/07/11 11:15:50;;;;;;;4.78;0.70;;;18.40;99.90;;;;;;5056065;28;20119;-67
2022/07/11 11:18:25;;;;;;;2.40;0.63;;;18.30;99.90;;;;;;5062974;28;20043;-68
2022/07/11 11:21:02;;;;;;;0.65;0.65;;;18.30;99.90;;;;;;5066701;28;20064;-67
2022/07/11 11:23:35;;;;;;;1.95;0.68;;;18.30;99.90;;;;;;5067865;28;20127;-67
2022/07/11 11:26:18;;;;;;;1.17;0.60;;;18.40;99.90;;;;;;5054109;28;20490;-68
2022/07/11 11:28:58;;;;;;;1.98;0.50;;;18.30;99.90;;;;;;5063391;28;20037;-68
2022/07/11 11:31:31;;;;;;;0.90;0.60;;;18.40;99.90;;;;;;5070969;28;20068;-67
2022/07/11 11:34:01;;;;;;;1.58;0.90;;;18.40;99.90;;;;;;5072304;28;20079;-66
2022/07/11 11:36:28;;;;;;;0.60;0.60;;;18.40;99.90;;;;;;5055100;28;20055;-67
2022/07/11 11:38:55;;;;;;;1.60;0.80;;;18.40;99.90;;;;;;5053516;28;20076;-67
2022/07/11 11:41:26;;;;;;;1.15;0.60;;;18.40;99.90;;;;;;5057202;28;20308;-67
2022/07/11 11:43:54;;;;;;;1.15;0.68;;;18.50;99.90;;;;;;5070106;28;20056;-66
2022/07/11 11:46:27;;;;;;;1.30;0.60;;;18.70;99.90;;;;;;5073175;28;20451;-68
2022/07/11 11:48:57;;;;;;;1.77;0.85;;;18.70;99.90;;;;;;5070469;28;20371;-66
2022/07/11 11:51:24;;;;;;;1.80;1.00;;;18.70;99.90;;;;;;5057923;28;20043;-67
2022/07/11 11:53:55;;;;;;;3.40;0.80;;;18.60;99.90;;;;;;5056591;28;20540;-71
2022/07/11 11:56:29;;;;;;;2.28;0.80;;;18.70;99.90;;;;;;5069265;28;20045;-67
2022/07/11 11:59:12;;;;;;;3.92;0.80;;;18.70;99.90;;;;;;5064520;28;20072;-69
2022/07/11 12:01:51;;;;;;;1.67;0.95;;;18.70;99.90;;;;;;5069995;28;20033;-68
2022/07/11 12:04:17;;;;;;;2.45;0.70;;;18.80;99.90;;;;;;5071481;28;20044;-68
2022/07/11 12:06:49;;;;;;;5.53;0.90;;;18.90;99.90;;;;;;5071413;28;20451;-66
2022/07/11 12:09:16;;;;;;;4.53;1.05;;;18.90;99.90;;;;;;5072971;28;20047;-69
2022/07/11 12:11:44;;;;;;;4.80;1.05;;;18.80;99.90;;;;;;5056103;28;20049;-67
2022/07/11 12:14:11;;;;;;;;;;;18.80;99.90;;;;;;5054278;28;20111;-67
2022/07/11 12:16:44;;;;;;;2.17;1.15;;;18.70;99.90;;;;;;5051713;28;19921;-67
2022/07/11 12:19:18;;;;;;;1.23;0.70;;;18.80;99.90;;;;;;5065331;28;20040;-69
2022/07/11 12:21:47;;;;;;;5.70;1.20;;;18.80;99.90;;;;;;5052197;28;20052;-67
2022/07/11 12:24:17;;;;;;;1.70;0.80;;;18.90;99.90;;;;;;5044954;28;20136;-67
2022/07/11 12:26:44;;;;;;;0.98;0.70;;;18.80;99.90;;;;;;5061916;28;20132;-67
2022/07/11 12:29:12;;;;;;;3.78;0.80;;;18.80;99.90;;;;;;5059233;28;20119;-66
2022/07/11 12:31:52;;;;;;;0.95;0.73;;;18.90;99.90;;;;;;5052304;28;20041;-67
2022/07/11 12:34:24;;;;;;;1.38;0.70;;;19.00;99.90;;;;;;5053513;28;20045;-66
2022/07/11 12:37:01;;;;;;;1.23;0.70;;;19.20;99.90;;;;;;5056352;28;20041;-66
2022/07/11 12:39:29;;;;;;;2.25;0.90;;;19.10;99.90;;;;;;5054045;28;20091;-68
2022/07/11 12:41:56;;;;;;;0.82;0.63;;;19.20;99.90;;;;;;5070757;28;20052;-68
2022/07/11 12:47:11;;;;;;;;;;;18.90;99.90;;;;;;5066065;28;20143;-67
2022/07/11 12:49:40;;;;;;;0.68;0.60;;;18.80;99.90;;;;;;5062105;28;20015;-67
2022/07/11 12:52:15;;;;;;;8.68;1.00;;;18.90;99.90;;;;;;5070217;28;20045;-69
2022/07/11 12:54:41;;;;;;;1.27;0.70;;;18.90;99.90;;;;;;5051360;28;20101;-67
2022/07/11 12:57:07;;;;;;;1.40;0.85;;;18.90;99.90;;;;;;5051698;28;20048;-68
2022/07/11 12:59:34;;;;;;;1.05;0.38;;;19.00;99.90;;;;;;5051909;28;20102;-67
2022/07/11 13:02:08;;;;;;;2.60;0.80;;;19.00;99.90;;;;;;5050483;28;20041;-69
2022/07/11 13:04:48;;;;;;;2.80;0.70;;;19.30;99.90;;;;;;5051763;28;20049;-67
2022/07/11 13:10:09;;;;;;;0.68;0.68;;;19.40;99.90;;;;;;5063628;28;20513;-67